Time;durP1;ratioP1;P1;durP2;ratioP2;P2;SDS_P1;SDS_P2;PMS_P1;PMS_P2;Temp;Humidity;BMP_temperature;BMP_pressure;BME280_temperature;BME280_humidity;BME280_pressure;Samples;Min_cycle;Max_cycle;Signal;HPM_P1;HPM_P2
2023/08/01 00:01:54;;;;;;;;;4.33;4.33;;;;;-128.00;-1.00;-1.00;105855;1262;1002612;-37
2023/08/01 00:04:21;;;;;;;;;6.00;5.00;;;;;-128.00;-1.00;-1.00;105855;1270;1002728;-37
2023/08/01 00:06:48;;;;;;;;;7.00;6.00;;;;;-128.00;-1.00;-1.00;105859;1262;1002545;-37
2023/08/01 00:09:16;;;;;;;;;5.75;5.50;;;;;-128.00;-1.00;-1.00;105892;1254;1002913;-36
2023/08/01 00:11:43;;;;;;;;;5.00;5.00;;;;;-128.00;-1.00;-1.00;105825;1262;1002691;-36
2023/08/01 00:14:10;;;;;;;;;6.00;6.00;;;;;-128.00;-1.00;-1.00;105827;1270;1002705;-36
2023/08/01 00:16:38;;;;;;;;;7.00;7.00;;;;;-128.00;-1.00;-1.00;105853;1261;1002987;-37
2023/08/01 00:19:05;;;;;;;;;5.00;5.00;;;;;-128.00;-1.00;-1.00;105854;1262;1002533;-37
2023/08/01 00:21:33;;;;;;;;;6.00;6.00;;;;;-128.00;-1.00;-1.00;105862;1254;1004411;-35
2023/08/01 00:24:00;;;;;;;;;7.00;6.00;;;;;-128.00;-1.00;-1.00;105810;1262;1003977;-36
2023/08/01 00:26:28;;;;;;;;;6.00;6.00;;;;;-128.00;-1.00;-1.00;105695;1261;1002846;-36
2023/08/01 00:28:55;;;;;;;;;5.00;5.00;;;;;-128.00;-1.00;-1.00;105846;1254;1002822;-36
2023/08/01 00:31:22;;;;;;;;;6.50;6.50;;;;;-128.00;-1.00;-1.00;105864;1261;1002844;-35
2023/08/01 00:33:49;;;;;;;;;5.33;5.00;;;;;-128.00;-1.00;-1.00;105875;1254;1002616;-35
2023/08/01 00:36:17;;;;;;;;;5.00;5.00;;;;;-128.00;-1.00;-1.00;105891;1254;1003673;-35
2023/08/01 00:38:44;;;;;;;;;5.00;5.00;;;;;-128.00;-1.00;-1.00;105900;1261;1003361;-35
2023/08/01 00:41:11;;;;;;;;;3.00;3.00;;;;;-128.00;-1.00;-1.00;105887;1261;1004030;-36
2023/08/01 00:43:39;;;;;;;;;6.00;6.00;;;;;-128.00;-1.00;-1.00;105912;1261;1002859;-36
2023/08/01 00:46:06;;;;;;;;;5.00;5.00;;;;;-128.00;-1.00;-1.00;105893;1261;1002470;-36
2023/08/01 00:48:33;;;;;;;;;5.00;5.00;;;;;-128.00;-1.00;-1.00;105852;1253;1003060;-34
2023/08/01 00:51:01;;;;;;;;;5.00;5.00;;;;;-128.00;-1.00;-1.00;105858;1261;1002629;-36
2023/08/01 00:53:28;;;;;;;;;6.50;6.00;;;;;-128.00;-1.00;-1.00;105837;1262;1003213;-37
2023/08/01 00:55:55;;;;;;;;;5.67;5.33;;;;;-128.00;-1.00;-1.00;105849;1263;1003374;-37
2023/08/01 00:58:23;;;;;;;;;5.00;5.00;;;;;-128.00;-1.00;-1.00;105817;1262;1002426;-36
2023/08/01 01:00:50;;;;;;;;;;;;;;;-128.00;-1.00;-1.00;105843;1261;1002658;-36
2023/08/01 01:03:17;;;;;;;;;5.00;5.00;;;;;-128.00;-1.00;-1.00;105888;1262;1003033;-37
2023/08/01 01:05:45;;;;;;;;;7.00;6.00;;;;;-128.00;-1.00;-1.00;105871;1254;1002718;-36
2023/08/01 01:08:12;;;;;;;;;5.67;5.67;;;;;-128.00;-1.00;-1.00;105845;1254;1002611;-36
2023/08/01 01:10:39;;;;;;;;;6.00;6.00;;;;;-128.00;-1.00;-1.00;105846;1261;1003249;-36
2023/08/01 01:13:06;;;;;;;;;5.50;5.50;;;;;-128.00;-1.00;-1.00;105845;1262;1002568;-36
2023/08/01 01:15:34;;;;;;;;;6.00;6.00;;;;;-128.00;-1.00;-1.00;105855;1261;1002717;-36
2023/08/01 01:18:01;;;;;;;;;5.00;5.00;;;;;-128.00;-1.00;-1.00;105858;1254;1002519;-36
2023/08/01 01:20:29;;;;;;;;;6.00;5.00;;;;;-128.00;-1.00;-1.00;105804;1262;1004410;-36
2023/08/01 01:22:56;;;;;;;;;5.00;5.00;;;;;-128.00;-1.00;-1.00;105844;1261;1002912;-36
2023/08/01 01:25:23;;;;;;;;;5.00;5.00;;;;;-128.00;-1.00;-1.00;105743;1262;1002163;-36
2023/08/01 01:27:51;;;;;;;;;6.50;6.50;;;;;-128.00;-1.00;-1.00;105886;1262;1004572;-36
2023/08/01 01:30:18;;;;;;;;;6.50;6.50;;;;;-128.00;-1.00;-1.00;105820;1254;1003937;-36
2023/08/01 01:32:45;;;;;;;;;6.00;6.00;;;;;-128.00;-1.00;-1.00;105856;1261;1002516;-35
2023/08/01 01:35:12;;;;;;;;;6.00;6.00;;;;;-128.00;-1.00;-1.00;105849;1262;1002850;-36
2023/08/01 01:37:40;;;;;;;;;7.00;7.00;;;;;-128.00;-1.00;-1.00;105840;1261;1002587;-36
2023/08/01 01:40:07;;;;;;;;;6.00;6.00;;;;;-128.00;-1.00;-1.00;105865;1262;1002465;-37
2023/08/01 01:42:34;;;;;;;;;6.00;6.00;;;;;-128.00;-1.00;-1.00;105883;1254;1002288;-37
2023/08/01 01:45:02;;;;;;;;;6.00;5.00;;;;;-128.00;-1.00;-1.00;105890;1261;1004681;-35
2023/08/01 01:47:29;;;;;;;;;6.67;6.00;;;;;-128.00;-1.00;-1.00;105876;1261;1002936;-35
2023/08/01 01:49:56;;;;;;;;;7.00;7.00;;;;;-128.00;-1.00;-1.00;105857;1261;1002423;-35
2023/08/01 01:52:23;;;;;;;;;7.00;6.00;;;;;-128.00;-1.00;-1.00;105824;1261;1002417;-36
2023/08/01 01:54:51;;;;;;;;;5.00;5.00;;;;;-128.00;-1.00;-1.00;105856;1270;1004380;-36
2023/08/01 01:57:18;;;;;;;;;5.33;5.00;;;;;-128.00;-1.00;-1.00;105842;1262;1002652;-36
2023/08/01 01:59:45;;;;;;;;;6.00;6.00;;;;;-128.00;-1.00;-1.00;105847;1262;1002710;-37
2023/08/01 02:02:14;;;;;;;;;6.33;6.33;;;;;-128.00;-1.00;-1.00;105847;1262;1005751;-36
2023/08/01 02:04:41;;;;;;;;;7.00;6.00;;;;;-128.00;-1.00;-1.00;105840;1261;1005866;-37
2023/08/01 02:07:09;;;;;;;;;6.67;6.00;;;;;-128.00;-1.00;-1.00;105819;1263;1003063;-36
2023/08/01 02:09:36;;;;;;;;;5.00;5.00;;;;;-128.00;-1.00;-1.00;105843;1254;1002625;-37
2023/08/01 02:12:04;;;;;;;;;5.50;5.00;;;;;-128.00;-1.00;-1.00;105848;1254;1002804;-37
2023/08/01 02:14:31;;;;;;;;;6.50;6.00;;;;;-128.00;-1.00;-1.00;105849;1262;1003195;-37
2023/08/01 02:16:59;;;;;;;;;7.00;6.00;;;;;-128.00;-1.00;-1.00;105827;1262;1002759;-37
2023/08/01 02:19:26;;;;;;;;;9.00;7.00;;;;;-128.00;-1.00;-1.00;105870;1261;1002675;-36
2023/08/01 02:21:53;;;;;;;;;8.67;8.33;;;;;-128.00;-1.00;-1.00;105835;1261;1002528;-36
2023/08/01 02:24:21;;;;;;;;;7.00;6.50;;;;;-128.00;-1.00;-1.00;105808;1261;1002980;-36
2023/08/01 02:26:48;;;;;;;;;7.50;7.50;;;;;-128.00;-1.00;-1.00;105789;1262;1003881;-37
2023/08/01 02:29:15;;;;;;;;;6.00;6.00;;;;;-128.00;-1.00;-1.00;105876;1261;1002797;-36
2023/08/01 02:31:43;;;;;;;;;8.00;7.00;;;;;-128.00;-1.00;-1.00;105850;1262;1002780;-36
2023/08/01 02:34:10;;;;;;;;;9.00;9.00;;;;;-128.00;-1.00;-1.00;105878;1262;1002594;-36
2023/08/01 02:36:37;;;;;;;;;6.50;6.50;;;;;-128.00;-1.00;-1.00;105848;1270;1002704;-36
2023/08/01 02:39:04;;;;;;;;;7.00;7.00;;;;;-128.00;-1.00;-1.00;105811;1261;1002694;-36
2023/08/01 02:41:32;;;;;;;;;7.00;7.00;;;;;-128.00;-1.00;-1.00;105795;1262;1003940;-36
2023/08/01 02:43:59;;;;;;;;;11.00;9.00;;;;;-128.00;-1.00;-1.00;105881;1263;1002743;-36
2023/08/01 02:46:27;;;;;;;;;6.00;5.25;;;;;-128.00;-1.00;-1.00;105871;1261;1002936;-36
2023/08/01 02:48:55;;;;;;;;;7.00;7.00;;;;;-128.00;-1.00;-1.00;105878;1262;1006577;-36
2023/08/01 02:51:22;;;;;;;;;9.00;9.00;;;;;-128.00;-1.00;-1.00;105858;1261;1002667;-36
2023/08/01 02:53:50;;;;;;;;;6.50;6.50;;;;;-128.00;-1.00;-1.00;105856;1262;1002289;-36
2023/08/01 02:56:17;;;;;;;;;6.00;5.00;;;;;-128.00;-1.00;-1.00;105871;1254;1002575;-36
2023/08/01 02:58:44;;;;;;;;;9.00;9.00;;;;;-128.00;-1.00;-1.00;105905;1262;1002484;-35
2023/08/01 03:01:13;;;;;;;;;6.50;6.50;;;;;-128.00;-1.00;-1.00;105836;1261;1002554;-36
2023/08/01 03:03:41;;;;;;;;;6.00;6.00;;;;;-128.00;-1.00;-1.00;105881;1261;1006072;-37
2023/08/01 03:06:08;;;;;;;;;9.50;9.00;;;;;-128.00;-1.00;-1.00;105810;1261;1007047;-37
2023/08/01 03:08:36;;;;;;;;;9.00;7.00;;;;;-128.00;-1.00;-1.00;105814;1262;1002812;-36
2023/08/01 03:11:03;;;;;;;;;5.50;5.50;;;;;-128.00;-1.00;-1.00;105785;1262;1002623;-36
2023/08/01 03:13:30;;;;;;;;;6.00;6.00;;;;;-128.00;-1.00;-1.00;105838;1261;1002800;-36
2023/08/01 03:15:58;;;;;;;;;10.00;7.00;;;;;-128.00;-1.00;-1.00;105808;1262;1002471;-35
2023/08/01 03:18:25;;;;;;;;;9.00;9.00;;;;;-128.00;-1.00;-1.00;105855;1262;1002389;-35
2023/08/01 03:20:52;;;;;;;;;6.50;6.00;;;;;-128.00;-1.00;-1.00;105866;1262;1003731;-35
2023/08/01 03:23:19;;;;;;;;;6.00;6.00;;;;;-128.00;-1.00;-1.00;105838;1261;1002876;-35
2023/08/01 03:25:47;;;;;;;;;7.00;7.00;;;;;-128.00;-1.00;-1.00;105830;1261;1004179;-35
2023/08/01 03:28:15;;;;;;;;;7.00;7.00;;;;;-128.00;-1.00;-1.00;105836;1261;1002651;-36
2023/08/01 03:30:42;;;;;;;;;8.00;7.00;;;;;-128.00;-1.00;-1.00;105877;1261;1003177;-34
2023/08/01 03:33:09;;;;;;;;;6.00;6.00;;;;;-128.00;-1.00;-1.00;105845;1262;1002677;-37
2023/08/01 03:35:36;;;;;;;;;7.00;7.00;;;;;-128.00;-1.00;-1.00;105839;1262;1002404;-35
2023/08/01 03:38:04;;;;;;;;;7.00;7.00;;;;;-128.00;-1.00;-1.00;105821;1270;1003102;-37
2023/08/01 03:40:31;;;;;;;;;9.00;9.00;;;;;-128.00;-1.00;-1.00;105818;1262;1002870;-36
2023/08/01 03:42:58;;;;;;;;;7.00;7.00;;;;;-128.00;-1.00;-1.00;105865;1263;1002911;-36
2023/08/01 03:45:26;;;;;;;;;7.00;6.50;;;;;-128.00;-1.00;-1.00;105811;1261;1001973;-36
2023/08/01 03:47:53;;;;;;;;;10.00;7.00;;;;;-128.00;-1.00;-1.00;105825;1261;1002569;-36
2023/08/01 03:50:20;;;;;;;;;6.67;6.67;;;;;-128.00;-1.00;-1.00;105845;1262;1002514;-36
2023/08/01 03:52:48;;;;;;;;;9.00;9.00;;;;;-128.00;-1.00;-1.00;105856;1261;1002387;-35
2023/08/01 03:55:16;;;;;;;;;11.00;9.00;;;;;-128.00;-1.00;-1.00;105797;1270;1003136;-36
2023/08/01 03:57:43;;;;;;;;;10.00;9.00;;;;;-128.00;-1.00;-1.00;105851;1262;1002974;-36
2023/08/01 04:00:13;;;;;;;;;8.00;8.00;;;;;-128.00;-1.00;-1.00;105862;1270;1004316;-36
2023/08/01 04:02:41;;;;;;;;;7.00;7.00;;;;;-128.00;-1.00;-1.00;105815;1254;1006669;-36
2023/08/01 04:05:08;;;;;;;;;9.50;9.00;;;;;-128.00;-1.00;-1.00;105824;1269;1002427;-36
2023/08/01 04:07:36;;;;;;;;;9.00;9.00;;;;;-128.00;-1.00;-1.00;105849;1261;1002806;-36
2023/08/01 04:10:03;;;;;;;;;7.00;7.00;;;;;-128.00;-1.00;-1.00;105777;1261;1002775;-36
2023/08/01 04:12:31;;;;;;;;;10.50;10.00;;;;;-128.00;-1.00;-1.00;105831;1261;1002942;-36
2023/08/01 04:14:58;;;;;;;;;10.00;9.00;;;;;-128.00;-1.00;-1.00;105827;1254;1004296;-37
2023/08/01 04:17:25;;;;;;;;;10.33;9.67;;;;;-128.00;-1.00;-1.00;105832;1262;1002959;-37
2023/08/01 04:19:53;;;;;;;;;10.00;9.00;;;;;-128.00;-1.00;-1.00;105834;1262;1003046;-37
2023/08/01 04:22:20;;;;;;;;;7.00;6.00;;;;;-128.00;-1.00;-1.00;105785;1254;1002744;-36
2023/08/01 04:24:47;;;;;;;;;9.00;9.00;;;;;-128.00;-1.00;-1.00;105760;1262;1002693;-36
2023/08/01 04:27:14;;;;;;;;;9.67;9.00;;;;;-128.00;-1.00;-1.00;105762;1262;1002566;-36
2023/08/01 04:29:42;;;;;;;;;7.00;7.00;;;;;-128.00;-1.00;-1.00;105794;1261;1002504;-36
2023/08/01 04:32:12;;;;;;;;;7.00;7.00;;;;;-128.00;-1.00;-1.00;105779;1262;1002660;-36
2023/08/01 04:34:40;;;;;;;;;9.00;9.00;;;;;-128.00;-1.00;-1.00;105759;1261;1007217;-37
2023/08/01 04:37:07;;;;;;;;;7.00;7.00;;;;;-128.00;-1.00;-1.00;105744;1254;1003790;-37
2023/08/01 04:39:34;;;;;;;;;7.00;6.00;;;;;-128.00;-1.00;-1.00;105761;1264;1002658;-36
2023/08/01 04:42:02;;;;;;;;;9.00;8.00;;;;;-128.00;-1.00;-1.00;105781;1261;1002812;-35
2023/08/01 04:44:30;;;;;;;;;9.00;9.00;;;;;-128.00;-1.00;-1.00;105746;1261;1003891;-36
2023/08/01 04:46:57;;;;;;;;;9.00;7.00;;;;;-128.00;-1.00;-1.00;105778;1254;1006773;-35
2023/08/01 04:49:25;;;;;;;;;9.00;8.00;;;;;-128.00;-1.00;-1.00;105742;1264;1002619;-36
2023/08/01 04:51:52;;;;;;;;;8.00;8.00;;;;;-128.00;-1.00;-1.00;105741;1261;1002465;-37
2023/08/01 04:54:19;;;;;;;;;9.67;7.00;;;;;-128.00;-1.00;-1.00;105767;1262;1003620;-36
2023/08/01 04:56:47;;;;;;;;;9.50;9.00;;;;;-128.00;-1.00;-1.00;105781;1262;1002742;-36
2023/08/01 04:59:14;;;;;;;;;8.00;8.00;;;;;-128.00;-1.00;-1.00;105798;1269;1002882;-36
2023/08/01 05:01:41;;;;;;;;;6.00;6.00;;;;;-128.00;-1.00;-1.00;105786;1262;1002925;-36
2023/08/01 05:04:09;;;;;;;;;9.00;9.00;;;;;-128.00;-1.00;-1.00;105872;1261;1002189;-37
2023/08/01 05:06:36;;;;;;;;;8.00;7.00;;;;;-128.00;-1.00;-1.00;105891;1262;1002509;-36
2023/08/01 05:09:04;;;;;;;;;7.67;7.00;;;;;-128.00;-1.00;-1.00;105848;1261;1002567;-35
2023/08/01 05:11:32;;;;;;;;;7.67;7.00;;;;;-128.00;-1.00;-1.00;105879;1254;1007322;-36
2023/08/01 05:13:59;;;;;;;;;9.00;9.00;;;;;-128.00;-1.00;-1.00;105886;1261;1002565;-36
2023/08/01 05:16:26;;;;;;;;;13.00;10.50;;;;;-128.00;-1.00;-1.00;105859;1261;1003139;-36
2023/08/01 05:18:54;;;;;;;;;9.50;9.00;;;;;-128.00;-1.00;-1.00;105900;1270;1002933;-36
2023/08/01 05:21:21;;;;;;;;;9.00;9.00;;;;;-128.00;-1.00;-1.00;105810;1261;1003846;-36
2023/08/01 05:23:48;;;;;;;;;11.00;10.00;;;;;-128.00;-1.00;-1.00;105816;1269;1002781;-36
2023/08/01 05:26:15;;;;;;;;;11.00;11.00;;;;;-128.00;-1.00;-1.00;105841;1262;1002792;-36
2023/08/01 05:28:43;;;;;;;;;12.00;12.00;;;;;-128.00;-1.00;-1.00;105834;1270;1003171;-36
2023/08/01 05:31:10;;;;;;;;;14.00;13.00;;;;;-128.00;-1.00;-1.00;105887;1261;1002475;-35
2023/08/01 05:33:37;;;;;;;;;12.00;11.00;;;;;-128.00;-1.00;-1.00;105866;1254;1004021;-36
2023/08/01 05:36:05;;;;;;;;;14.00;13.33;;;;;-128.00;-1.00;-1.00;105837;1262;1003339;-36
2023/08/01 05:38:32;;;;;;;;;12.00;12.00;;;;;-128.00;-1.00;-1.00;105855;1263;1002810;-35
2023/08/01 05:40:59;;;;;;;;;10.00;10.00;;;;;-128.00;-1.00;-1.00;105869;1261;1002756;-37
2023/08/01 05:43:27;;;;;;;;;13.00;12.00;;;;;-128.00;-1.00;-1.00;105753;1262;1003009;-36
2023/08/01 05:45:54;;;;;;;;;13.00;12.00;;;;;-128.00;-1.00;-1.00;105891;1261;1002892;-36
2023/08/01 05:48:22;;;;;;;;;;;;;;;-128.00;-1.00;-1.00;105865;1263;1002495;-37
2023/08/01 05:50:49;;;;;;;;;10.50;9.50;;;;;-128.00;-1.00;-1.00;105842;1261;1002414;-36
2023/08/01 05:53:16;;;;;;;;;11.00;11.00;;;;;-128.00;-1.00;-1.00;105904;1261;1003146;-36
2023/08/01 05:55:44;;;;;;;;;10.00;10.00;;;;;-128.00;-1.00;-1.00;105884;1262;1004286;-36
2023/08/01 05:58:11;;;;;;;;;14.00;13.00;;;;;-128.00;-1.00;-1.00;105844;1261;1005328;-36
2023/08/01 06:00:38;;;;;;;;;9.00;9.00;;;;;-128.00;-1.00;-1.00;105819;1262;1004965;-37
2023/08/01 06:03:05;;;;;;;;;10.00;10.00;;;;;-128.00;-1.00;-1.00;105872;1262;1003029;-37
2023/08/01 06:05:33;;;;;;;;;15.00;12.50;;;;;-128.00;-1.00;-1.00;105850;1261;1004398;-37
2023/08/01 06:08:00;;;;;;;;;13.00;12.00;;;;;-128.00;-1.00;-1.00;105853;1261;1005049;-37
2023/08/01 06:10:28;;;;;;;;;12.33;11.33;;;;;-128.00;-1.00;-1.00;105871;1254;1002493;-37
2023/08/01 06:12:55;;;;;;;;;12.00;10.00;;;;;-128.00;-1.00;-1.00;105848;1261;1006768;-36
2023/08/01 06:15:22;;;;;;;;;9.00;9.00;;;;;-128.00;-1.00;-1.00;105819;1254;1002688;-35
2023/08/01 06:17:50;;;;;;;;;10.00;10.00;;;;;-128.00;-1.00;-1.00;105878;1270;1002834;-35
2023/08/01 06:20:17;;;;;;;;;10.00;9.50;;;;;-128.00;-1.00;-1.00;105858;1254;1005278;-36
2023/08/01 06:22:44;;;;;;;;;13.50;10.00;;;;;-128.00;-1.00;-1.00;105859;1261;1002803;-36
2023/08/01 06:25:12;;;;;;;;;11.00;11.00;;;;;-128.00;-1.00;-1.00;105852;1261;1002394;-36
2023/08/01 06:27:39;;;;;;;;;14.00;13.00;;;;;-128.00;-1.00;-1.00;105875;1261;1002123;-37
2023/08/01 06:30:07;;;;;;;;;9.00;9.00;;;;;-128.00;-1.00;-1.00;105808;1262;1003096;-36
2023/08/01 06:32:34;;;;;;;;;10.00;10.00;;;;;-128.00;-1.00;-1.00;105821;1262;1003072;-35
2023/08/01 06:35:01;;;;;;;;;11.00;10.75;;;;;-128.00;-1.00;-1.00;105897;1262;1002647;-36
2023/08/01 06:37:29;;;;;;;;;12.00;12.00;;;;;-128.00;-1.00;-1.00;105847;1261;1003398;-36
2023/08/01 06:40:58;;;;;;;;;10.00;10.00;;;;;22.99;57.90;99423.19;107317;1283;17641;-39
2023/08/01 06:43:26;;;;;;;;;9.75;9.00;;;;;-128.00;-1.00;-1.00;105862;1262;1007209;-39
2023/08/01 06:45:53;;;;;;;;;9.00;8.00;;;;;-128.00;-1.00;-1.00;105849;1263;1003117;-39
2023/08/01 06:48:20;;;;;;;;;10.00;9.50;;;;;-128.00;-1.00;-1.00;105862;1262;1003327;-38
2023/08/01 06:50:48;;;;;;;;;9.00;8.00;;;;;-128.00;-1.00;-1.00;105893;1264;1003523;-38
2023/08/01 06:53:15;;;;;;;;;8.00;8.00;;;;;-128.00;-1.00;-1.00;105887;1263;1002367;-39
2023/08/01 06:55:42;;;;;;;;;9.00;8.00;;;;;-128.00;-1.00;-1.00;106273;1262;1002560;-39
2023/08/01 06:58:10;;;;;;;;;8.00;8.00;;;;;-128.00;-1.00;-1.00;106468;1260;1003248;-37
2023/08/01 07:00:37;;;;;;;;;8.00;6.00;;;;;-128.00;-1.00;-1.00;106464;1260;1002582;-37
2023/08/01 07:03:04;;;;;;;;;7.50;6.50;;;;;-128.00;-1.00;-1.00;106485;1260;1002958;-37
2023/08/01 07:05:32;;;;;;;;;6.00;5.50;;;;;-128.00;-1.00;-1.00;106478;1254;1003274;-37
2023/08/01 07:07:59;;;;;;;;;8.00;6.00;;;;;-128.00;-1.00;-1.00;106457;1260;1002419;-37
2023/08/01 07:10:26;;;;;;;;;6.00;6.00;;;;;-128.00;-1.00;-1.00;106483;1261;1006155;-39
2023/08/01 07:12:54;;;;;;;;;6.00;6.00;;;;;-128.00;-1.00;-1.00;106477;1260;1003580;-36
2023/08/01 07:17:47;;;;;;;;;6.00;6.00;;;;;23.84;56.72;99413.08;107148;1302;17839;-38
2023/08/01 07:20:13;;;;;;;;;7.50;6.00;;;;;23.78;56.28;99410.86;108724;1263;19499;-36
2023/08/01 07:22:39;;;;;;;;;6.00;6.00;;;;;23.81;56.55;99406.71;108779;1261;19372;-37
2023/08/01 07:25:05;;;;;;;;;11.00;10.00;;;;;23.71;56.85;99402.19;108766;1277;19030;-37
2023/08/01 07:27:31;;;;;;;;;9.00;9.00;;;;;23.39;57.53;99405.30;108731;1276;19026;-38
2023/08/01 07:29:57;;;;;;;;;12.00;10.00;;;;;23.26;58.14;99401.20;108359;1261;437724;-37
2023/08/01 07:32:23;;;;;;;;;9.00;9.00;;;;;23.28;58.11;99399.66;108847;1261;20074;-38
2023/08/01 07:34:49;;;;;;;;;10.00;9.00;;;;;23.33;57.96;99396.02;108858;1267;18076;-38
2023/08/01 07:37:15;;;;;;;;;8.00;8.00;;;;;23.42;57.62;99392.88;108832;1260;19470;-38
2023/08/01 07:39:40;;;;;;;;;7.00;7.00;;;;;23.51;57.66;99390.42;110264;1248;19001;-38
2023/08/01 07:42:06;;;;;;;;;7.00;7.00;;;;;23.57;57.46;99390.86;110304;1248;19945;-37
2023/08/01 07:44:32;;;;;;;;;6.50;5.50;;;;;23.65;57.28;99388.16;110304;1249;18893;-39
2023/08/01 07:46:58;;;;;;;;;5.00;5.00;;;;;23.72;57.27;99386.52;110282;1248;19028;-38
2023/08/01 07:49:24;;;;;;;;;9.50;7.50;;;;;23.75;57.11;99385.42;110234;1248;19532;-38
2023/08/01 07:51:51;;;;;;;;;6.00;6.00;;;;;23.77;57.11;99380.57;110267;1264;17910;-38
2023/08/01 07:54:17;;;;;;;;;6.00;5.67;;;;;23.78;56.97;99381.08;110264;1263;17796;-38
2023/08/01 07:56:43;;;;;;;;;5.00;5.00;;;;;23.80;56.80;99381.66;110228;1256;20968;-38
2023/08/01 07:59:10;;;;;;;;;6.00;6.00;;;;;23.81;56.76;99379.89;110210;1248;19631;-38
2023/08/01 08:01:36;;;;;;;;;6.00;6.00;;;;;23.80;56.78;99383.00;110265;1264;19200;-38
2023/08/01 08:04:02;;;;;;;;;6.00;6.00;;;;;23.84;56.66;99380.11;110215;1264;19757;-38
2023/08/01 08:06:28;;;;;;;;;47.50;37.50;;;;;23.88;56.78;99377.23;110220;1264;19665;-39
2023/08/01 08:08:55;;;;;;;;;68.00;52.00;;;;;23.94;56.37;99375.78;110197;1264;19639;-38
2023/08/01 08:11:23;;;;;;;;;90.50;64.00;;;;;23.92;56.32;99373.59;110265;1264;18583;-39
2023/08/01 08:13:51;;;;;;;;;127.00;94.50;;;;;23.90;56.30;99371.87;110282;1264;22001;-38
2023/08/01 08:16:20;;;;;;;;;117.00;96.00;;;;;23.90;56.49;99374.11;110310;1264;19875;-38
2023/08/01 08:18:47;;;;;;;;;120.67;93.67;;;;;23.90;56.49;99368.42;110235;1257;19549;-40
2023/08/01 08:21:15;;;;;;;;;125.50;103.50;;;;;23.89;56.60;99368.61;110217;1264;19110;-38
2023/08/01 08:23:44;;;;;;;;;132.00;99.00;;;;;23.89;56.65;99362.69;110220;1264;19706;-38
2023/08/01 08:26:11;;;;;;;;;147.00;116.00;;;;;23.92;56.49;99363.98;110211;1251;18846;-39
2023/08/01 08:28:42;;;;;;;;;168.50;131.00;;;;;23.98;56.74;99362.41;110201;1264;20084;-38
2023/08/01 08:31:08;;;;;;;;;158.00;122.33;;;;;24.05;56.76;99364.30;110200;1257;22198;-38
2023/08/01 08:33:35;;;;;;;;;;;;;;;24.07;56.78;99361.05;110234;1264;19859;-38
2023/08/01 08:36:03;;;;;;;;;99.00;72.00;;;;;24.08;56.92;99361.98;110302;1263;20203;-38
2023/08/01 08:38:30;;;;;;;;;99.00;73.00;;;;;24.12;56.99;99357.08;110212;1264;21926;-38
2023/08/01 08:40:58;;;;;;;;;75.50;57.50;;;;;24.13;56.95;99355.27;110305;1263;19114;-38
2023/08/01 08:43:24;;;;;;;;;48.00;41.50;;;;;24.01;57.19;99353.17;110237;1264;18952;-39
2023/08/01 08:45:51;;;;;;;;;32.00;30.00;;;;;23.77;57.88;99348.81;110271;1263;18207;-38
2023/08/01 08:48:18;;;;;;;;;18.00;17.00;;;;;23.59;58.41;99351.23;110282;1264;19272;-39
2023/08/01 08:50:44;;;;;;;;;18.00;18.00;;;;;23.22;59.52;99347.38;110285;1248;19792;-38
2023/08/01 08:53:12;;;;;;;;;20.00;18.00;;;;;22.97;60.09;99345.69;110241;1248;21832;-37
2023/08/01 08:55:38;;;;;;;;;13.00;13.00;;;;;22.82;60.65;99343.40;110238;1248;21308;-37
2023/08/01 08:58:04;;;;;;;;;14.00;12.50;;;;;22.77;61.10;99343.96;110224;1264;22188;-37
2023/08/01 09:00:30;;;;;;;;;12.00;12.00;;;;;22.69;61.11;99342.35;110208;1264;19180;-38
2023/08/01 09:02:56;;;;;;;;;14.00;13.00;;;;;22.70;61.09;99341.48;110180;1264;19583;-37
2023/08/01 09:05:22;;;;;;;;;16.00;14.00;;;;;22.72;61.37;99333.40;110204;1256;20346;-37
2023/08/01 09:07:48;;;;;;;;;13.00;13.00;;;;;22.61;61.78;99335.27;110219;1248;19275;-38
2023/08/01 09:10:14;;;;;;;;;12.00;12.00;;;;;22.56;61.73;99329.05;110270;1263;18150;-37
2023/08/01 09:12:40;;;;;;;;;17.00;16.00;;;;;22.58;61.66;99324.40;110219;1264;18901;-38
2023/08/01 09:15:06;;;;;;;;;13.00;13.00;;;;;22.62;61.52;99330.38;110169;1248;19219;-37
2023/08/01 09:17:32;;;;;;;;;13.00;13.00;;;;;22.39;62.25;99325.33;110286;1248;19604;-37
2023/08/01 09:19:58;;;;;;;;;12.50;12.00;;;;;22.51;62.07;99318.77;110164;1256;19992;-37
2023/08/01 09:22:24;;;;;;;;;12.00;12.00;;;;;22.72;61.46;99317.86;110288;1249;19595;-38
2023/08/01 09:24:50;;;;;;;;;10.00;10.00;;;;;22.81;61.49;99318.92;110275;1248;19576;-38
2023/08/01 09:27:16;;;;;;;;;13.00;12.00;;;;;22.68;61.96;99309.65;110184;1263;21841;-38
2023/08/01 09:29:42;;;;;;;;;12.50;12.00;;;;;22.66;61.77;99308.69;110225;1247;20743;-39
2023/08/01 09:32:07;;;;;;;;;16.00;15.00;;;;;22.47;62.68;99304.11;110307;1248;19563;-39
2023/08/01 09:34:33;;;;;;;;;13.00;13.00;;;;;22.52;62.24;99299.60;110240;1264;19862;-39
2023/08/01 09:36:59;;;;;;;;;12.00;10.00;;;;;22.07;63.81;99301.10;110209;1264;17840;-39
2023/08/01 09:39:25;;;;;;;;;12.50;12.00;;;;;22.10;64.08;99298.18;110217;1248;19809;-38
2023/08/01 09:41:51;;;;;;;;;12.00;11.00;;;;;22.25;63.79;99298.51;110208;1247;23067;-38
2023/08/01 09:44:17;;;;;;;;;13.00;12.00;;;;;22.36;63.43;99290.11;110198;1263;18106;-39
2023/08/01 09:46:44;;;;;;;;;15.00;13.00;;;;;22.45;63.53;99285.39;110242;1251;21850;-39
2023/08/01 09:49:10;;;;;;;;;13.00;13.00;;;;;22.31;64.27;99285.19;110173;1264;21945;-40
2023/08/01 09:51:36;;;;;;;;;16.00;13.00;;;;;21.91;65.74;99286.04;110269;1248;19277;-40
2023/08/01 09:54:02;;;;;;;;;12.00;12.00;;;;;21.72;66.23;99279.64;110230;1248;19583;-40
2023/08/01 09:56:28;;;;;;;;;16.00;13.00;;;;;21.91;65.77;99276.48;110236;1248;19878;-39
2023/08/01 09:58:54;;;;;;;;;11.00;11.00;;;;;21.93;65.56;99268.16;110250;1263;18061;-40
2023/08/01 10:01:21;;;;;;;;;18.00;15.50;;;;;22.05;65.59;99268.52;110271;1249;19786;-40
2023/08/01 10:03:47;;;;;;;;;14.00;12.00;;;;;21.95;65.83;99262.88;110263;1257;18268;-40
2023/08/01 10:06:13;;;;;;;;;10.00;10.00;;;;;22.12;64.80;99266.24;110240;1248;20462;-40
2023/08/01 10:08:39;;;;;;;;;15.00;14.00;;;;;21.92;65.36;99262.05;110207;1257;18142;-40
2023/08/01 10:11:05;;;;;;;;;13.00;13.00;;;;;21.93;64.98;99261.70;110266;1248;19728;-40
2023/08/01 10:13:31;;;;;;;;;11.50;11.50;;;;;22.22;64.09;99258.15;110291;1264;17862;-40
2023/08/01 10:15:57;;;;;;;;;12.00;12.00;;;;;22.53;63.07;99249.73;110278;1263;19740;-40
2023/08/01 10:18:23;;;;;;;;;11.00;10.00;;;;;22.74;62.30;99247.98;110285;1263;18869;-40
2023/08/01 10:20:49;;;;;;;;;12.00;10.00;;;;;22.78;62.27;99251.40;110296;1263;17878;-40
2023/08/01 10:23:15;;;;;;;;;15.00;13.00;;;;;22.44;63.33;99246.19;110294;1248;19543;-39
2023/08/01 10:25:41;;;;;;;;;13.00;13.00;;;;;22.55;63.02;99244.93;110211;1263;19758;-40
2023/08/01 10:28:07;;;;;;;;;15.00;12.50;;;;;22.60;62.64;99236.66;110210;1264;17853;-40
2023/08/01 10:30:33;;;;;;;;;11.50;11.50;;;;;22.69;62.15;99240.59;110194;1264;18328;-39
2023/08/01 10:32:59;;;;;;;;;13.00;13.00;;;;;22.61;62.32;99238.91;110200;1248;19869;-39
2023/08/01 10:35:25;;;;;;;;;11.00;10.00;;;;;22.52;62.73;99229.73;110164;1248;19607;-39
2023/08/01 10:37:51;;;;;;;;;10.00;10.00;;;;;22.68;62.14;99223.47;110252;1257;21653;-40
2023/08/01 10:40:17;;;;;;;;;10.33;9.33;;;;;22.39;63.07;99220.55;110220;1248;21822;-40
2023/08/01 10:42:43;;;;;;;;;9.50;9.50;;;;;22.38;63.11;99216.39;110253;1248;22269;-39
2023/08/01 10:45:09;;;;;;;;;14.00;12.00;;;;;22.47;62.77;99215.22;110274;1264;18745;-39
2023/08/01 10:47:35;;;;;;;;;12.00;10.00;;;;;22.41;62.71;99210.68;110263;1248;19506;-39
2023/08/01 10:50:01;;;;;;;;;9.00;9.00;;;;;22.71;61.56;99208.96;110281;1251;18799;-38
2023/08/01 10:52:27;;;;;;;;;10.00;10.00;;;;;22.86;60.80;99200.98;110275;1263;19649;-39
2023/08/01 10:54:53;;;;;;;;;12.00;12.00;;;;;22.93;60.52;99197.23;110223;1263;18198;-39
2023/08/01 10:57:19;;;;;;;;;13.50;9.50;;;;;22.98;60.37;99195.05;110198;1257;18850;-39
2023/08/01 10:59:45;;;;;;;;;12.50;12.00;;;;;23.01;60.13;99198.33;110241;1250;18556;-39
2023/08/01 11:02:11;;;;;;;;;12.00;10.00;;;;;22.94;60.12;99197.67;110276;1248;19751;-39
2023/08/01 11:04:37;;;;;;;;;13.00;12.00;;;;;22.99;60.11;99193.30;110248;1264;19232;-39
2023/08/01 11:07:03;;;;;;;;;14.00;12.00;;;;;22.98;60.20;99185.57;110251;1250;20345;-39
2023/08/01 11:09:29;;;;;;;;;12.00;12.00;;;;;23.00;59.86;99189.84;110248;1257;18318;-40
2023/08/01 11:11:55;;;;;;;;;9.00;9.00;;;;;22.98;59.78;99182.04;110217;1257;18903;-39
2023/08/01 11:14:22;;;;;;;;;12.00;12.00;;;;;22.84;60.22;99180.33;110231;1264;18572;-39
2023/08/01 11:16:48;;;;;;;;;13.00;12.00;;;;;22.83;60.41;99175.84;110231;1248;20936;-39